Long Island Mac Arthur Airport
KISP : now visible

Airfield :











YOU CAN JOIN US ON...

 
LOGIN :

Register | Disclaimer

   EN    FR    IT 

 









Legend :    VFR   Marginal VFR   IFR   Intensive IFR   Very Intensive IFR
Visi :
Ceiling :
>= 8 km
>= 3000ft
5 to 8 km
1000 to 3000 ft
1500m to 5 km
500 to 1000 ft
800 to 1500m
200 to 500 ft
< 800m
< 200 ft
Symbols :   Thunderstorms  Fog  Heavy snow  Heavy precipitations  Wind > 20 kt






- Airport Elevation : 99 ft
- IATA code : ISP


KISP - Long Island Mac Arthur

CURRENT METAR :
  • 212256Z 19006KT 1/8SM R06/4000VP6000FT FG VV002 18/18 A3023 RMK AO2 DZE43 SLP237 P0000 T01780178

EXPIRED METARs :
  • 212158Z 18004KT 1/8SM R06/5000VP6000FT -DZ FG OVC002 18/18 A3023 RMK AO2 SFC VIS 1/2 P0000 T01830183

TAF KISP
Valid from the 22 at 00:00 until the 23 at 00:00 UTC


212341Z 2200/2224 18005KT 1/4SM FG OVC002
TEMPO 2201/2205 1/2SM FG OVC002
FM220600 25002KT 1/2SM FG OVC002
FM221300 32002KT 5SM BR OVC005
FM221500 04003KT P6SM SCT005 BKN012
FM221700 11003KT P6SM BKN015
FM221900 14004KT P6SM BKN035
KZBW FIR / North America



MET'MAP, your aeronautical weather chart ! - Copyright ORBIFLY December 2007 - Disclaimer

ORBIFLY MET'MAP TEAM :

Programming & Development : Alexandra Zaïnal
Concept & original design : Baudouin d'Aumeries
Assistance for programming : Marc-Olivier Méhu
Technical & hardware support : Manuel Goepfert

Contact : metmap@orbifly.com




SOURCES & CREDITS :

   NOAA       Earth
Advisory